Arklow Rock — PBZM — position and weather

sailwx.info

Track history (hours):
 
Tides and Currents Weather Stations Pressure Air Temp Water Temp Dewpoint Dewpoint Depression Visibility Wind Speed Wind Dir Waves Ship Positions

Arklow Rock

Last reported at 2017-Mar-29 04:34 UTC. Time now 2017-Mar-29 05:25 UTC.
Position N 54°36' W 005°25'.

Length 90 m; draft 6 m.

Type: Cargo ship. MMSI: 246002000.

Date/timePositionNaut miles runAvg speedWind from/ knotsBaromVisibWave heightAir tempDewpointWater temp
2017-Mar-29 04:34N 54°36' W 005°25'1010.0
2017-Mar-29 03:34N 54°27' W 005°17'9 9.2
2017-Mar-29 02:33N 54°18' W 005°21'1211.8
2017-Mar-29 01:33N 54°07' W 005°24'9612.8
2017-Mar-28 18:05N 52°32' W 005°48'712.2
2017-Mar-28 17:33N 52°25' W 005°49'1111.1
2017-Mar-28 16:33N 52°15' W 005°53'10 9.5
2017-Mar-28 15:33N 52°05' W 005°55'10 8.7
2017-Mar-28 14:27N 51°56' W 005°60'  
2017-Mar-24 05:33N 50°36' W 005°52'1212.1
2017-Mar-24 04:33N 50°44' W 005°37'1211.8
2017-Mar-24 03:34N 50°52' W 005°23'1211.6
2017-Mar-24 02:34N 50°59' W 005°09'1111.5
2017-Mar-24 01:34N 51°06' W 004°55'1211.3
2017-Mar-24 00:31N 51°14' W 004°40'1111.3
2017-Mar-23 23:33N 51°16' W 004°23'1211.6
2017-Mar-23 22:32N 51°17' W 004°04'3812.7
2017-Mar-23 19:33N 51°23' W 003°05'1514.6
2017-Mar-23 18:33N 51°30' W 002°44'1 1.4
2017-Mar-23 17:32N 51°31' W 002°42'0 0.0
2017-Mar-23 16:32N 51°31' W 002°42'0 0.0
2017-Mar-23 15:32N 51°31' W 002°42'0 0.0
2017-Mar-23 14:32N 51°31' W 002°42'0 0.0
2017-Mar-23 13:32N 51°31' W 002°42'0 0.0
2017-Mar-23 12:32N 51°31' W 002°42'0 0.0
2017-Mar-23 11:32N 51°31' W 002°42'0 0.0
2017-Mar-23 10:32N 51°31' W 002°42'0 0.0
2017-Mar-23 09:32N 51°31' W 002°42'0 0.0
2017-Mar-23 08:32N 51°31' W 002°42'0 0.0
2017-Mar-23 07:32N 51°31' W 002°42'0 0.0
2017-Mar-23 06:32N 51°31' W 002°42'0 0.0
2017-Mar-23 05:32N 51°31' W 002°42'0 0.0
2017-Mar-23 04:32N 51°31' W 002°42'0 0.5
2017-Mar-23 03:33N 51°30' W 002°43'2 1.5
2017-Mar-23 02:33N 51°30' W 002°45'1111.3
2017-Mar-23 01:33N 51°25' W 003°02'187 8.1
2017-Mar-22 02:33N 54°12' W 005°21'1212.2
2017-Mar-22 01:33N 54°25' W 005°20'1212.2
2017-Mar-22 00:33N 54°37' W 005°20'1211.8
2017-Mar-21 23:33N 54°49' W 005°20'  
Track history (hours):
 
Tides and Currents Weather Stations Pressure Air Temp Water Temp Dewpoint Dewpoint Depression Visibility Wind Speed Wind Dir Waves Ship Positions

Arklow Rock

Last reported at 2017-Mar-29 04:34 UTC. Time now 2017-Mar-29 05:25 UTC.
Position N 54°36' W 005°25'.

Length 90 m; draft 6 m.

Type: Cargo ship. MMSI: 246002000.

Date/timePositionNaut miles runAvg speedWind from/ knotsBaromVisibWave heightAir tempDewpointWater temp
2017-Mar-29 04:34N 54°36' W 005°25'1010.0
2017-Mar-29 03:34N 54°27' W 005°17'9 9.2
2017-Mar-29 02:33N 54°18' W 005°21'1211.8
2017-Mar-29 01:33N 54°07' W 005°24'9612.8
2017-Mar-28 18:05N 52°32' W 005°48'712.2
2017-Mar-28 17:33N 52°25' W 005°49'1111.1
2017-Mar-28 16:33N 52°15' W 005°53'10 9.5
2017-Mar-28 15:33N 52°05' W 005°55'10 8.7
2017-Mar-28 14:27N 51°56' W 005°60'  
2017-Mar-24 05:33N 50°36' W 005°52'1212.1
2017-Mar-24 04:33N 50°44' W 005°37'1211.8
2017-Mar-24 03:34N 50°52' W 005°23'1211.6
2017-Mar-24 02:34N 50°59' W 005°09'1111.5
2017-Mar-24 01:34N 51°06' W 004°55'1211.3
2017-Mar-24 00:31N 51°14' W 004°40'1111.3
2017-Mar-23 23:33N 51°16' W 004°23'1211.6
2017-Mar-23 22:32N 51°17' W 004°04'3812.7
2017-Mar-23 19:33N 51°23' W 003°05'1514.6
2017-Mar-23 18:33N 51°30' W 002°44'1 1.4
2017-Mar-23 17:32N 51°31' W 002°42'0 0.0
2017-Mar-23 16:32N 51°31' W 002°42'0 0.0
2017-Mar-23 15:32N 51°31' W 002°42'0 0.0
2017-Mar-23 14:32N 51°31' W 002°42'0 0.0
2017-Mar-23 13:32N 51°31' W 002°42'0 0.0
2017-Mar-23 12:32N 51°31' W 002°42'0 0.0
2017-Mar-23 11:32N 51°31' W 002°42'0 0.0
2017-Mar-23 10:32N 51°31' W 002°42'0 0.0
2017-Mar-23 09:32N 51°31' W 002°42'0 0.0
2017-Mar-23 08:32N 51°31' W 002°42'0 0.0
2017-Mar-23 07:32N 51°31' W 002°42'0 0.0
2017-Mar-23 06:32N 51°31' W 002°42'0 0.0
2017-Mar-23 05:32N 51°31' W 002°42'0 0.0
2017-Mar-23 04:32N 51°31' W 002°42'0 0.5
2017-Mar-23 03:33N 51°30' W 002°43'2 1.5
2017-Mar-23 02:33N 51°30' W 002°45'1111.3
2017-Mar-23 01:33N 51°25' W 003°02'187 8.1
2017-Mar-22 02:33N 54°12' W 005°21'1212.2
2017-Mar-22 01:33N 54°25' W 005°20'1212.2
2017-Mar-22 00:33N 54°37' W 005°20'1211.8
2017-Mar-21 23:33N 54°49' W 005°20'  

Dump ship's entire track history